sensor_id;sensor_type;location;lat;lon;timestamp;pressure;altitude;pressure_sealevel;temperature;humidity
16525;BME280;8375;33.594;-117.718;2023-07-28T00:00:23;99862.34;;;32.29;38.04
16525;BME280;8375;33.594;-117.718;2023-07-28T00:02:53;99869.34;;;31.79;39.20
16525;BME280;8375;33.594;-117.718;2023-07-28T00:05:22;99878.25;;;31.05;41.33
16525;BME280;8375;33.594;-117.718;2023-07-28T00:07:50;99879.22;;;30.73;42.92
16525;BME280;8375;33.594;-117.718;2023-07-28T00:10:19;99882.69;;;30.30;43.95
16525;BME280;8375;33.594;-117.718;2023-07-28T00:12:48;99883.56;;;30.04;44.88
16525;BME280;8375;33.594;-117.718;2023-07-28T00:15:16;99880.47;;;29.57;46.17
16525;BME280;8375;33.594;-117.718;2023-07-28T00:17:45;99879.09;;;29.32;46.92
16525;BME280;8375;33.594;-117.718;2023-07-28T00:20:15;99889.25;;;29.30;46.62
16525;BME280;8375;33.594;-117.718;2023-07-28T00:22:44;99890.44;;;29.39;47.57
16525;BME280;8375;33.594;-117.718;2023-07-28T00:25:13;99891.06;;;29.47;47.72
16525;BME280;8375;33.594;-117.718;2023-07-28T00:27:41;99889.09;;;29.64;47.74
16525;BME280;8375;33.594;-117.718;2023-07-28T00:30:11;99879.97;;;29.60;47.74
16525;BME280;8375;33.594;-117.718;2023-07-28T00:32:40;99889.09;;;29.64;47.83
16525;BME280;8375;33.594;-117.718;2023-07-28T00:35:09;99892.06;;;29.18;49.83
16525;BME280;8375;33.594;-117.718;2023-07-28T00:37:39;99892.03;;;28.57;51.35
16525;BME280;8375;33.594;-117.718;2023-07-28T00:40:08;99881.69;;;28.09;52.51
16525;BME280;8375;33.594;-117.718;2023-07-28T00:42:37;99894.88;;;27.99;54.11
16525;BME280;8375;33.594;-117.718;2023-07-28T00:45:07;99888.53;;;27.71;55.02
16525;BME280;8375;33.594;-117.718;2023-07-28T00:47:36;99896.47;;;27.53;56.70
16525;BME280;8375;33.594;-117.718;2023-07-28T00:50:06;99896.16;;;27.50;56.01
16525;BME280;8375;33.594;-117.718;2023-07-28T00:52:35;99899.28;;;27.47;56.92
16525;BME280;8375;33.594;-117.718;2023-07-28T00:55:06;99907.16;;;27.42;58.02
16525;BME280;8375;33.594;-117.718;2023-07-28T00:57:35;99910.88;;;27.41;58.71
16525;BME280;8375;33.594;-117.718;2023-07-28T01:00:06;99919.09;;;26.86;60.41
16525;BME280;8375;33.594;-117.718;2023-07-28T01:02:35;99917.78;;;26.53;61.42
16525;BME280;8375;33.594;-117.718;2023-07-28T01:05:05;99921.63;;;26.57;60.96
16525;BME280;8375;33.594;-117.718;2023-07-28T01:07:38;99928.31;;;26.48;62.30
16525;BME280;8375;33.594;-117.718;2023-07-28T01:10:16;99927.84;;;26.39;62.98
16525;BME280;8375;33.594;-117.718;2023-07-28T01:12:46;99932.03;;;26.47;62.65
16525;BME280;8375;33.594;-117.718;2023-07-28T01:15:14;99927.84;;;26.39;63.87
16525;BME280;8375;33.594;-117.718;2023-07-28T01:17:43;99926.78;;;26.40;63.73
16525;BME280;8375;33.594;-117.718;2023-07-28T01:20:12;99923.06;;;26.17;64.81
16525;BME280;8375;33.594;-117.718;2023-07-28T01:22:49;99922.84;;;25.88;65.93
16525;BME280;8375;33.594;-117.718;2023-07-28T01:25:32;99928.44;;;25.68;66.98
16525;BME280;8375;33.594;-117.718;2023-07-28T01:28:06;99927.06;;;25.47;67.96
16525;BME280;8375;33.594;-117.718;2023-07-28T01:30:36;99923.22;;;25.43;68.89
16525;BME280;8375;33.594;-117.718;2023-07-28T01:33:06;99928.63;;;25.55;68.24
16525;BME280;8375;33.594;-117.718;2023-07-28T01:35:37;99923.50;;;25.53;68.00
16525;BME280;8375;33.594;-117.718;2023-07-28T01:38:06;99924.81;;;25.44;67.96
16525;BME280;8375;33.594;-117.718;2023-07-28T01:40:35;99928.97;;;25.02;70.06
16525;BME280;8375;33.594;-117.718;2023-07-28T01:43:05;99933.22;;;24.85;71.22
16525;BME280;8375;33.594;-117.718;2023-07-28T01:45:34;99941.91;;;24.73;71.82
16525;BME280;8375;33.594;-117.718;2023-07-28T01:48:03;99934.69;;;24.81;71.38
16525;BME280;8375;33.594;-117.718;2023-07-28T01:50:32;99939.97;;;24.87;71.10
16525;BME280;8375;33.594;-117.718;2023-07-28T01:53:00;99937.50;;;24.86;71.28
16525;BME280;8375;33.594;-117.718;2023-07-28T01:55:29;99945.84;;;24.89;70.64
16525;BME280;8375;33.594;-117.718;2023-07-28T01:58:00;99942.59;;;24.37;72.83
16525;BME280;8375;33.594;-117.718;2023-07-28T02:00:30;99935.63;;;24.10;74.31
16525;BME280;8375;33.594;-117.718;2023-07-28T02:02:59;99938.41;;;23.83;75.45
16525;BME280;8375;33.594;-117.718;2023-07-28T02:05:29;99939.44;;;23.82;75.81
16525;BME280;8375;33.594;-117.718;2023-07-28T02:07:58;99942.09;;;23.82;76.07
16525;BME280;8375;33.594;-117.718;2023-07-28T02:10:27;99940.31;;;23.69;76.47
16525;BME280;8375;33.594;-117.718;2023-07-28T02:12:56;99946.25;;;23.65;77.11
16525;BME280;8375;33.594;-117.718;2023-07-28T02:15:25;99941.00;;;23.51;77.57
16525;BME280;8375;33.594;-117.718;2023-07-28T02:17:55;99944.13;;;23.35;78.68
16525;BME280;8375;33.594;-117.718;2023-07-28T02:20:24;99941.44;;;23.41;78.55
16525;BME280;8375;33.594;-117.718;2023-07-28T02:22:53;99952.34;;;23.72;77.23
16525;BME280;8375;33.594;-117.718;2023-07-28T02:25:21;99948.47;;;23.68;76.96
16525;BME280;8375;33.594;-117.718;2023-07-28T02:27:50;99956.25;;;23.56;77.60
16525;BME280;8375;33.594;-117.718;2023-07-28T02:30:19;99958.94;;;23.42;77.96
16525;BME280;8375;33.594;-117.718;2023-07-28T02:32:47;99956.34;;;23.36;78.57
16525;BME280;8375;33.594;-117.718;2023-07-28T02:35:18;99965.94;;;23.10;79.29
16525;BME280;8375;33.594;-117.718;2023-07-28T02:37:46;99967.81;;;22.89;80.08
16525;BME280;8375;33.594;-117.718;2023-07-28T02:40:15;99972.47;;;23.00;79.78
16525;BME280;8375;33.594;-117.718;2023-07-28T02:42:44;99974.72;;;22.90;79.68
16525;BME280;8375;33.594;-117.718;2023-07-28T02:45:12;99971.88;;;22.98;79.51
16525;BME280;8375;33.594;-117.718;2023-07-28T02:47:41;99977.38;;;22.70;79.96
16525;BME280;8375;33.594;-117.718;2023-07-28T02:50:10;99982.84;;;22.48;81.24
16525;BME280;8375;33.594;-117.718;2023-07-28T02:52:40;99980.97;;;22.42;81.70
16525;BME280;8375;33.594;-117.718;2023-07-28T02:55:09;99976.16;;;22.46;81.97
16525;BME280;8375;33.594;-117.718;2023-07-28T02:57:37;99982.25;;;22.53;81.95
16525;BME280;8375;33.594;-117.718;2023-07-28T03:00:07;99989.38;;;22.66;81.35
16525;BME280;8375;33.594;-117.718;2023-07-28T03:02:37;99986.31;;;22.55;81.83
16525;BME280;8375;33.594;-117.718;2023-07-28T03:05:06;99987.75;;;22.45;82.36
16525;BME280;8375;33.594;-117.718;2023-07-28T03:07:35;99992.38;;;22.42;82.79
16525;BME280;8375;33.594;-117.718;2023-07-28T03:10:06;99996.84;;;22.35;83.38
16525;BME280;8375;33.594;-117.718;2023-07-28T03:12:35;99988.50;;;22.25;83.70
16525;BME280;8375;33.594;-117.718;2023-07-28T03:15:04;99998.78;;;21.93;85.57
16525;BME280;8375;33.594;-117.718;2023-07-28T03:17:33;99990.63;;;21.88;86.31
16525;BME280;8375;33.594;-117.718;2023-07-28T03:20:02;100003.88;;;22.01;85.75
16525;BME280;8375;33.594;-117.718;2023-07-28T03:22:31;100003.69;;;22.09;85.09
16525;BME280;8375;33.594;-117.718;2023-07-28T03:24:59;100003.03;;;21.94;85.89
16525;BME280;8375;33.594;-117.718;2023-07-28T03:27:31;100008.16;;;22.02;85.76
16525;BME280;8375;33.594;-117.718;2023-07-28T03:30:00;100005.75;;;22.21;85.09
16525;BME280;8375;33.594;-117.718;2023-07-28T03:32:29;100013.13;;;22.32;84.10
16525;BME280;8375;33.594;-117.718;2023-07-28T03:34:57;100009.06;;;22.36;83.43
16525;BME280;8375;33.594;-117.718;2023-07-28T03:37:26;100007.41;;;22.22;84.05
16525;BME280;8375;33.594;-117.718;2023-07-28T03:39:55;100007.94;;;21.97;85.68
16525;BME280;8375;33.594;-117.718;2023-07-28T03:42:24;100002.81;;;21.89;86.20
16525;BME280;8375;33.594;-117.718;2023-07-28T03:44:54;100001.63;;;21.98;85.74
16525;BME280;8375;33.594;-117.718;2023-07-28T03:47:23;99998.34;;;21.89;86.30
16525;BME280;8375;33.594;-117.718;2023-07-28T03:49:52;100005.28;;;22.04;85.63
16525;BME280;8375;33.594;-117.718;2023-07-28T03:52:21;100015.47;;;22.07;85.33
16525;BME280;8375;33.594;-117.718;2023-07-28T03:54:49;100011.38;;;21.91;86.30
16525;BME280;8375;33.594;-117.718;2023-07-28T03:57:18;100013.72;;;21.72;87.34
16525;BME280;8375;33.594;-117.718;2023-07-28T03:59:47;100012.38;;;21.54;88.48
16525;BME280;8375;33.594;-117.718;2023-07-28T04:02:17;100017.22;;;21.44;89.46
16525;BME280;8375;33.594;-117.718;2023-07-28T04:04:46;100014.44;;;21.59;88.57
16525;BME280;8375;33.594;-117.718;2023-07-28T04:07:14;100012.72;;;21.73;87.50
16525;BME280;8375;33.594;-117.718;2023-07-28T04:09:43;100015.34;;;21.73;87.25
16525;BME280;8375;33.594;-117.718;2023-07-28T04:12:12;100017.38;;;21.71;87.60
16525;BME280;8375;33.594;-117.718;2023-07-28T04:14:40;100013.25;;;21.62;88.02
16525;BME280;8375;33.594;-117.718;2023-07-28T04:17:09;100015.66;;;21.57;88.37
16525;BME280;8375;33.594;-117.718;2023-07-28T04:19:40;100015.97;;;21.47;88.81
16525;BME280;8375;33.594;-117.718;2023-07-28T04:22:09;100015.34;;;21.38;89.50
16525;BME280;8375;33.594;-117.718;2023-07-28T04:24:38;100019.59;;;21.10;91.26
16525;BME280;8375;33.594;-117.718;2023-07-28T04:27:07;100021.06;;;20.91;92.61
16525;BME280;8375;33.594;-117.718;2023-07-28T04:29:35;100025.47;;;20.84;93.36
16525;BME280;8375;33.594;-117.718;2023-07-28T04:32:05;100039.53;;;20.91;92.99
16525;BME280;8375;33.594;-117.718;2023-07-28T04:34:33;100037.03;;;20.83;93.70
16525;BME280;8375;33.594;-117.718;2023-07-28T04:37:04;100035.84;;;20.86;93.92
16525;BME280;8375;33.594;-117.718;2023-07-28T04:39:33;100041.56;;;20.89;93.38
16525;BME280;8375;33.594;-117.718;2023-07-28T04:42:03;100033.72;;;20.96;92.90
16525;BME280;8375;33.594;-117.718;2023-07-28T04:44:33;100035.75;;;21.01;92.50
16525;BME280;8375;33.594;-117.718;2023-07-28T04:47:02;100039.38;;;20.93;92.79
16525;BME280;8375;33.594;-117.718;2023-07-28T04:49:31;100033.88;;;20.94;93.03
16525;BME280;8375;33.594;-117.718;2023-07-28T04:52:01;100037.63;;;20.78;93.91
16525;BME280;8375;33.594;-117.718;2023-07-28T04:54:31;100030.81;;;20.69;94.72
16525;BME280;8375;33.594;-117.718;2023-07-28T04:57:01;100035.72;;;20.72;94.99
16525;BME280;8375;33.594;-117.718;2023-07-28T04:59:30;100030.72;;;20.62;95.50
16525;BME280;8375;33.594;-117.718;2023-07-28T05:01:58;100028.28;;;20.61;96.14
16525;BME280;8375;33.594;-117.718;2023-07-28T05:04:27;100022.53;;;20.72;95.55
16525;BME280;8375;33.594;-117.718;2023-07-28T05:06:56;100033.97;;;20.79;95.18
16525;BME280;8375;33.594;-117.718;2023-07-28T05:09:25;100037.25;;;20.81;94.99
16525;BME280;8375;33.594;-117.718;2023-07-28T05:11:56;100026.41;;;20.76;95.65
16525;BME280;8375;33.594;-117.718;2023-07-28T05:14:25;100033.78;;;20.81;95.23
16525;BME280;8375;33.594;-117.718;2023-07-28T05:16:54;100027.94;;;20.86;95.63
16525;BME280;8375;33.594;-117.718;2023-07-28T05:19:22;100031.25;;;20.94;95.68
16525;BME280;8375;33.594;-117.718;2023-07-28T05:21:51;100031.69;;;20.98;95.17
16525;BME280;8375;33.594;-117.718;2023-07-28T05:24:20;100032.69;;;20.97;95.41
16525;BME280;8375;33.594;-117.718;2023-07-28T05:26:49;100022.16;;;20.97;94.71
16525;BME280;8375;33.594;-117.718;2023-07-28T05:29:19;100027.03;;;21.00;94.88
16525;BME280;8375;33.594;-117.718;2023-07-28T05:31:48;100017.66;;;20.98;94.88
16525;BME280;8375;33.594;-117.718;2023-07-28T05:34:17;100017.03;;;20.95;95.31
16525;BME280;8375;33.594;-117.718;2023-07-28T05:36:46;100011.16;;;20.93;95.33
16525;BME280;8375;33.594;-117.718;2023-07-28T05:39:15;100014.78;;;20.92;95.43
16525;BME280;8375;33.594;-117.718;2023-07-28T05:41:44;100015.78;;;20.91;95.17
16525;BME280;8375;33.594;-117.718;2023-07-28T05:44:13;100008.72;;;20.92;95.38
16525;BME280;8375;33.594;-117.718;2023-07-28T05:46:44;100010.34;;;20.93;95.14
16525;BME280;8375;33.594;-117.718;2023-07-28T05:49:15;100003.63;;;20.90;95.38
16525;BME280;8375;33.594;-117.718;2023-07-28T05:51:43;100012.16;;;20.92;95.50
16525;BME280;8375;33.594;-117.718;2023-07-28T05:54:12;100013.91;;;20.85;95.50
16525;BME280;8375;33.594;-117.718;2023-07-28T05:56:42;100011.03;;;20.80;96.19
16525;BME280;8375;33.594;-117.718;2023-07-28T05:59:11;100017.50;;;20.77;96.58
16525;BME280;8375;33.594;-117.718;2023-07-28T06:01:39;100008.94;;;20.75;96.58
16525;BME280;8375;33.594;-117.718;2023-07-28T06:04:10;100016.25;;;20.73;96.79
16525;BME280;8375;33.594;-117.718;2023-07-28T06:06:39;100010.84;;;20.60;97.58
16525;BME280;8375;33.594;-117.718;2023-07-28T06:09:07;100026.97;;;20.50;98.86
16525;BME280;8375;33.594;-117.718;2023-07-28T06:11:36;100012.97;;;20.28;100.00
16525;BME280;8375;33.594;-117.718;2023-07-28T06:14:05;100014.38;;;20.30;100.00
16525;BME280;8375;33.594;-117.718;2023-07-28T06:16:34;100025.75;;;20.31;100.00
16525;BME280;8375;33.594;-117.718;2023-07-28T06:19:03;100027.16;;;20.27;100.00
16525;BME280;8375;33.594;-117.718;2023-07-28T06:21:34;100027.00;;;20.13;100.00
16525;BME280;8375;33.594;-117.718;2023-07-28T06:24:04;100037.19;;;20.01;100.00
16525;BME280;8375;33.594;-117.718;2023-07-28T06:26:33;100035.84;;;19.90;100.00
16525;BME280;8375;33.594;-117.718;2023-07-28T06:29:02;100026.53;;;19.79;100.00
16525;BME280;8375;33.594;-117.718;2023-07-28T06:31:32;100020.00;;;19.75;100.00
16525;BME280;8375;33.594;-117.718;2023-07-28T06:34:01;100034.53;;;19.71;100.00
16525;BME280;8375;33.594;-117.718;2023-07-28T06:36:29;100024.38;;;19.68;100.00
16525;BME280;8375;33.594;-117.718;2023-07-28T06:39:00;100020.00;;;19.75;100.00
16525;BME280;8375;33.594;-117.718;2023-07-28T06:41:29;100017.28;;;19.84;100.00
16525;BME280;8375;33.594;-117.718;2023-07-28T06:43:58;100020.47;;;19.94;100.00
16525;BME280;8375;33.594;-117.718;2023-07-28T06:46:26;100016.94;;;20.02;100.00
16525;BME280;8375;33.594;-117.718;2023-07-28T06:48:55;100031.38;;;20.06;100.00
16525;BME280;8375;33.594;-117.718;2023-07-28T06:51:24;100029.53;;;20.06;100.00
16525;BME280;8375;33.594;-117.718;2023-07-28T06:53:53;100027.91;;;20.05;100.00
16525;BME280;8375;33.594;-117.718;2023-07-28T06:56:24;100026.72;;;20.08;100.00
16525;BME280;8375;33.594;-117.718;2023-07-28T06:58:52;100022.91;;;20.11;100.00
16525;BME280;8375;33.594;-117.718;2023-07-28T07:01:21;100031.44;;;20.13;100.00
16525;BME280;8375;33.594;-117.718;2023-07-28T07:03:50;100021.91;;;20.12;100.00
16525;BME280;8375;33.594;-117.718;2023-07-28T07:06:19;100023.09;;;20.09;100.00
16525;BME280;8375;33.594;-117.718;2023-07-28T07:08:48;100022.25;;;20.08;100.00
16525;BME280;8375;33.594;-117.718;2023-07-28T07:11:17;100026.72;;;20.08;100.00
16525;BME280;8375;33.594;-117.718;2023-07-28T07:13:48;100017.63;;;20.11;100.00
16525;BME280;8375;33.594;-117.718;2023-07-28T07:16:18;100019.25;;;20.12;100.00
16525;BME280;8375;33.594;-117.718;2023-07-28T07:18:48;100017.63;;;20.11;100.00
16525;BME280;8375;33.594;-117.718;2023-07-28T07:21:20;100015.81;;;20.11;100.00
16525;BME280;8375;33.594;-117.718;2023-07-28T07:23:49;100014.00;;;20.12;100.00
16525;BME280;8375;33.594;-117.718;2023-07-28T07:26:18;100013.34;;;20.10;100.00
16525;BME280;8375;33.594;-117.718;2023-07-28T07:28:49;100012.56;;;20.09;100.00
16525;BME280;8375;33.594;-117.718;2023-07-28T07:31:19;100010.09;;;20.07;100.00
16525;BME280;8375;33.594;-117.718;2023-07-28T07:33:49;100007.47;;;20.07;100.00
16525;BME280;8375;33.594;-117.718;2023-07-28T07:36:19;100009.84;;;20.02;100.00
16525;BME280;8375;33.594;-117.718;2023-07-28T07:38:49;100003.38;;;20.05;100.00
16525;BME280;8375;33.594;-117.718;2023-07-28T07:41:18;100004.03;;;20.07;100.00
16525;BME280;8375;33.594;-117.718;2023-07-28T07:43:54;99994.47;;;20.06;100.00
16525;BME280;8375;33.594;-117.718;2023-07-28T07:46:24;99998.03;;;19.98;100.00
16525;BME280;8375;33.594;-117.718;2023-07-28T07:48:54;99999.28;;;20.02;100.00
16525;BME280;8375;33.594;-117.718;2023-07-28T07:51:25;99987.13;;;20.01;100.00
16525;BME280;8375;33.594;-117.718;2023-07-28T07:53:56;99987.13;;;20.01;100.00
16525;BME280;8375;33.594;-117.718;2023-07-28T07:56:26;99976.97;;;19.98;100.00
16525;BME280;8375;33.594;-117.718;2023-07-28T07:58:57;99970.44;;;19.94;100.00
16525;BME280;8375;33.594;-117.718;2023-07-28T08:01:27;99969.00;;;19.91;100.00
16525;BME280;8375;33.594;-117.718;2023-07-28T08:03:58;99964.72;;;19.90;100.00
16525;BME280;8375;33.594;-117.718;2023-07-28T08:06:29;99956.97;;;19.89;100.00
16525;BME280;8375;33.594;-117.718;2023-07-28T08:09:02;99960.59;;;19.88;100.00
16525;BME280;8375;33.594;-117.718;2023-07-28T08:11:39;99959.81;;;19.87;100.00
16525;BME280;8375;33.594;-117.718;2023-07-28T08:14:10;99957.81;;;19.89;100.00
16525;BME280;8375;33.594;-117.718;2023-07-28T08:16:40;99964.25;;;20.02;100.00
16525;BME280;8375;33.594;-117.718;2023-07-28T08:19:09;99955.44;;;19.95;100.00
16525;BME280;8375;33.594;-117.718;2023-07-28T08:21:38;99953.25;;;19.98;100.00
16525;BME280;8375;33.594;-117.718;2023-07-28T08:24:08;99949.34;;;19.94;100.00
16525;BME280;8375;33.594;-117.718;2023-07-28T08:26:38;99953.38;;;19.90;100.00
16525;BME280;8375;33.594;-117.718;2023-07-28T08:29:09;99946.28;;;19.90;100.00
16525;BME280;8375;33.594;-117.718;2023-07-28T08:31:38;99941.66;;;19.92;100.00
16525;BME280;8375;33.594;-117.718;2023-07-28T08:34:07;99937.72;;;19.88;100.00
16525;BME280;8375;33.594;-117.718;2023-07-28T08:36:36;99942.53;;;19.85;100.00
16525;BME280;8375;33.594;-117.718;2023-07-28T08:39:05;99942.47;;;19.78;100.00
16525;BME280;8375;33.594;-117.718;2023-07-28T08:41:36;99951.19;;;19.78;100.00
16525;BME280;8375;33.594;-117.718;2023-07-28T08:44:05;99943.66;;;19.75;100.00
16525;BME280;8375;33.594;-117.718;2023-07-28T08:46:37;99944.28;;;19.77;100.00
16525;BME280;8375;33.594;-117.718;2023-07-28T08:49:06;99943.28;;;19.78;100.00
16525;BME280;8375;33.594;-117.718;2023-07-28T08:51:35;99947.84;;;19.70;100.00
16525;BME280;8375;33.594;-117.718;2023-07-28T08:54:09;99941.47;;;19.64;100.00
16525;BME280;8375;33.594;-117.718;2023-07-28T08:56:37;99938.84;;;19.64;100.00
16525;BME280;8375;33.594;-117.718;2023-07-28T08:59:06;99934.47;;;19.71;100.00
16525;BME280;8375;33.594;-117.718;2023-07-28T09:01:40;99932.59;;;19.65;100.00
16525;BME280;8375;33.594;-117.718;2023-07-28T09:04:10;99936.41;;;19.62;100.00
16525;BME280;8375;33.594;-117.718;2023-07-28T09:06:39;99940.84;;;19.62;100.00
16525;BME280;8375;33.594;-117.718;2023-07-28T09:09:13;99931.06;;;19.56;100.00
16525;BME280;8375;33.594;-117.718;2023-07-28T09:11:45;99934.31;;;19.58;100.00
16525;BME280;8375;33.594;-117.718;2023-07-28T09:14:15;99929.00;;;19.51;100.00
16525;BME280;8375;33.594;-117.718;2023-07-28T09:16:45;99939.53;;;19.51;100.00
16525;BME280;8375;33.594;-117.718;2023-07-28T09:19:14;99939.31;;;19.53;100.00
16525;BME280;8375;33.594;-117.718;2023-07-28T09:21:44;99930.63;;;19.52;100.00
16525;BME280;8375;33.594;-117.718;2023-07-28T09:24:13;99928.16;;;19.50;100.00
16525;BME280;8375;33.594;-117.718;2023-07-28T09:26:44;99920.34;;;19.57;100.00
16525;BME280;8375;33.594;-117.718;2023-07-28T09:29:14;99936.78;;;19.59;100.00
16525;BME280;8375;33.594;-117.718;2023-07-28T09:31:43;99929.44;;;19.55;100.00
16525;BME280;8375;33.594;-117.718;2023-07-28T09:34:23;99927.78;;;19.54;100.00
16525;BME280;8375;33.594;-117.718;2023-07-28T09:36:53;99912.81;;;19.54;100.00
16525;BME280;8375;33.594;-117.718;2023-07-28T09:39:23;99927.78;;;19.54;100.00
16525;BME280;8375;33.594;-117.718;2023-07-28T09:41:52;99925.34;;;19.52;100.00
16525;BME280;8375;33.594;-117.718;2023-07-28T09:44:23;99923.53;;;19.53;100.00
16525;BME280;8375;33.594;-117.718;2023-07-28T09:46:53;99917.81;;;19.49;100.00
16525;BME280;8375;33.594;-117.718;2023-07-28T09:49:28;99922.09;;;19.50;100.00
16525;BME280;8375;33.594;-117.718;2023-07-28T09:52:00;99921.81;;;19.45;100.00
16525;BME280;8375;33.594;-117.718;2023-07-28T09:54:34;99901.03;;;19.50;100.00
16525;BME280;8375;33.594;-117.718;2023-07-28T09:57:06;99903.84;;;19.48;100.00
16525;BME280;8375;33.594;-117.718;2023-07-28T09:59:39;99893.25;;;19.42;100.00
16525;BME280;8375;33.594;-117.718;2023-07-28T10:02:09;99902.88;;;19.34;100.00
16525;BME280;8375;33.594;-117.718;2023-07-28T10:04:39;99902.59;;;19.29;100.00
16525;BME280;8375;33.594;-117.718;2023-07-28T10:07:09;99891.81;;;19.24;100.00
16525;BME280;8375;33.594;-117.718;2023-07-28T10:09:38;99893.97;;;19.20;100.00
16525;BME280;8375;33.594;-117.718;2023-07-28T10:12:08;99893.97;;;19.20;100.00
16525;BME280;8375;33.594;-117.718;2023-07-28T10:14:45;99892.91;;;19.15;100.00
16525;BME280;8375;33.594;-117.718;2023-07-28T10:17:16;99884.75;;;19.10;100.00
16525;BME280;8375;33.594;-117.718;2023-07-28T10:19:46;99885.75;;;19.09;100.00
16525;BME280;8375;33.594;-117.718;2023-07-28T10:22:15;99895.91;;;19.12;100.00
16525;BME280;8375;33.594;-117.718;2023-07-28T10:24:50;99898.31;;;19.13;100.00
16525;BME280;8375;33.594;-117.718;2023-07-28T10:27:30;99894.53;;;19.16;100.00
16525;BME280;8375;33.594;-117.718;2023-07-28T10:29:59;99894.25;;;19.11;100.00
16525;BME280;8375;33.594;-117.718;2023-07-28T10:32:37;99898.31;;;19.13;100.00
16525;BME280;8375;33.594;-117.718;2023-07-28T10:35:09;99897.06;;;19.09;100.00
16525;BME280;8375;33.594;-117.718;2023-07-28T10:37:49;99908.22;;;19.11;100.00
16525;BME280;8375;33.594;-117.718;2023-07-28T10:40:27;99910.03;;;19.11;100.00
16525;BME280;8375;33.594;-117.718;2023-07-28T10:42:56;99900.97;;;19.13;100.00
16525;BME280;8375;33.594;-117.718;2023-07-28T10:45:26;99910.03;;;19.11;100.00
16525;BME280;8375;33.594;-117.718;2023-07-28T10:47:56;99910.94;;;19.03;100.00
16525;BME280;8375;33.594;-117.718;2023-07-28T10:50:29;99901.41;;;19.02;100.00
16525;BME280;8375;33.594;-117.718;2023-07-28T10:52:58;99901.97;;;18.97;100.00
16525;BME280;8375;33.594;-117.718;2023-07-28T10:55:28;99905.44;;;18.89;100.00
16525;BME280;8375;33.594;-117.718;2023-07-28T10:57:57;99903.25;;;18.78;100.00
16525;BME280;8375;33.594;-117.718;2023-07-28T11:00:26;99902.34;;;18.71;100.00
16525;BME280;8375;33.594;-117.718;2023-07-28T11:02:55;99901.72;;;18.69;100.00
16525;BME280;8375;33.594;-117.718;2023-07-28T11:05:26;99906.13;;;18.53;100.00
16525;BME280;8375;33.594;-117.718;2023-07-28T11:07:57;99910.50;;;18.38;100.00
16525;BME280;8375;33.594;-117.718;2023-07-28T11:10:28;99906.41;;;18.35;100.00
16525;BME280;8375;33.594;-117.718;2023-07-28T11:13:01;99907.69;;;18.39;100.00
16525;BME280;8375;33.594;-117.718;2023-07-28T11:15:30;99915.81;;;18.29;100.00
16525;BME280;8375;33.594;-117.718;2023-07-28T11:17:59;99918.56;;;18.36;100.00
16525;BME280;8375;33.594;-117.718;2023-07-28T11:20:28;99924.75;;;18.43;100.00
16525;BME280;8375;33.594;-117.718;2023-07-28T11:23:00;99917.34;;;18.47;100.00
16525;BME280;8375;33.594;-117.718;2023-07-28T11:25:30;99918.41;;;18.53;100.00
16525;BME280;8375;33.594;-117.718;2023-07-28T11:28:01;99918.25;;;18.54;100.00
16525;BME280;8375;33.594;-117.718;2023-07-28T11:30:32;99925.78;;;18.57;100.00
16525;BME280;8375;33.594;-117.718;2023-07-28T11:33:06;99924.44;;;18.61;100.00
16525;BME280;8375;33.594;-117.718;2023-07-28T11:35:37;99921.47;;;18.65;100.00
16525;BME280;8375;33.594;-117.718;2023-07-28T11:38:07;99922.72;;;18.69;100.00
16525;BME280;8375;33.594;-117.718;2023-07-28T11:40:36;99925.00;;;18.72;100.00
16525;BME280;8375;33.594;-117.718;2023-07-28T11:43:06;99912.69;;;18.72;100.00
16525;BME280;8375;33.594;-117.718;2023-07-28T11:45:35;99916.13;;;18.73;100.00
16525;BME280;8375;33.594;-117.718;2023-07-28T11:48:04;99914.69;;;18.70;100.00
16525;BME280;8375;33.594;-117.718;2023-07-28T11:50:36;99914.22;;;18.67;100.00
16525;BME280;8375;33.594;-117.718;2023-07-28T11:53:07;99905.16;;;18.69;100.00
16525;BME280;8375;33.594;-117.718;2023-07-28T11:55:38;99912.97;;;18.77;100.00
16525;BME280;8375;33.594;-117.718;2023-07-28T11:58:07;99908.25;;;18.73;100.00
16525;BME280;8375;33.594;-117.718;2023-07-28T12:00:39;99915.78;;;18.76;100.00
16525;BME280;8375;33.594;-117.718;2023-07-28T12:03:09;99907.25;;;18.74;100.00
16525;BME280;8375;33.594;-117.718;2023-07-28T12:05:39;99904.81;;;18.72;100.00
16525;BME280;8375;33.594;-117.718;2023-07-28T12:08:10;99919.03;;;18.78;100.00
16525;BME280;8375;33.594;-117.718;2023-07-28T12:10:54;99922.66;;;18.77;100.00
16525;BME280;8375;33.594;-117.718;2023-07-28T12:13:23;99924.56;;;18.68;100.00
16525;BME280;8375;33.594;-117.718;2023-07-28T12:15:53;99929.00;;;18.68;100.00
16525;BME280;8375;33.594;-117.718;2023-07-28T12:18:22;99925.84;;;18.72;100.00
16525;BME280;8375;33.594;-117.718;2023-07-28T12:20:53;99927.13;;;18.76;100.00
16525;BME280;8375;33.594;-117.718;2023-07-28T12:23:24;99928.28;;;18.74;100.00
16525;BME280;8375;33.594;-117.718;2023-07-28T12:25:52;99942.69;;;18.78;100.00
16525;BME280;8375;33.594;-117.718;2023-07-28T12:28:22;99943.69;;;18.77;100.00
16525;BME280;8375;33.594;-117.718;2023-07-28T12:30:50;99948.94;;;18.77;100.00
16525;BME280;8375;33.594;-117.718;2023-07-28T12:33:22;99950.59;;;18.78;100.00
16525;BME280;8375;33.594;-117.718;2023-07-28T12:35:52;99958.66;;;18.76;100.00
16525;BME280;8375;33.594;-117.718;2023-07-28T12:38:21;99958.03;;;18.74;100.00
16525;BME280;8375;33.594;-117.718;2023-07-28T12:40:51;99962.66;;;18.72;100.00
16525;BME280;8375;33.594;-117.718;2023-07-28T12:43:21;99961.53;;;18.67;100.00